createdAt,value
2023-03-19T00:00:25.173Z,98994.78
2023-03-19T00:02:51.854Z,99015.78
2023-03-19T00:05:19.151Z,99010.28
2023-03-19T00:07:45.618Z,99005.13
2023-03-19T00:10:12.077Z,99009.75
2023-03-19T00:12:38.426Z,99016.72
2023-03-19T00:15:06.332Z,99011.41
2023-03-19T00:17:33.726Z,99006.91
2023-03-19T00:20:00.276Z,99007.09
2023-03-19T00:22:26.643Z,99019.72
2023-03-19T00:24:53.292Z,99017.13
2023-03-19T00:27:19.691Z,99022.44
2023-03-19T00:29:47.124Z,99014.81
2023-03-19T00:32:15.046Z,99029.44
2023-03-19T00:34:41.388Z,99021.56
2023-03-19T00:37:07.876Z,99018.09
2023-03-19T00:39:34.363Z,99018.44
2023-03-19T00:42:01.181Z,99024.59
2023-03-19T00:44:27.593Z,99026.00
2023-03-19T00:46:54.512Z,99019.50
2023-03-19T00:49:21.368Z,99009.22
2023-03-19T00:51:47.890Z,99003.41
2023-03-19T00:54:14.551Z,99017.63
2023-03-19T00:56:40.874Z,99024.13
2023-03-19T00:59:07.273Z,99036.09
2023-03-19T01:01:33.907Z,99034.28
2023-03-19T01:04:00.351Z,99039.19
2023-03-19T01:06:26.913Z,99019.72
2023-03-19T01:08:53.375Z,99023.28
2023-03-19T01:11:20.808Z,99032.72
2023-03-19T01:13:47.804Z,99028.09
2023-03-19T01:16:14.324Z,99032.81
2023-03-19T01:18:40.661Z,99040.66
2023-03-19T01:21:07.025Z,99059.75
2023-03-19T01:23:33.949Z,99066.22
2023-03-19T01:26:00.477Z,99064.59
2023-03-19T01:28:26.889Z,99063.09
2023-03-19T01:30:53.252Z,99075.09
2023-03-19T01:33:19.785Z,99096.88
2023-03-19T01:35:47.292Z,99103.50
2023-03-19T01:38:13.701Z,99106.06
2023-03-19T01:40:47.679Z,99118.34
2023-03-19T01:43:20.906Z,99118.34
2023-03-19T01:45:53.199Z,99127.47
2023-03-19T01:48:26.941Z,99126.94
2023-03-19T01:50:53.745Z,99145.69
2023-03-19T01:53:24.511Z,99154.81
2023-03-19T01:55:55.197Z,99149.50
2023-03-19T01:58:24.962Z,99153.13
2023-03-19T02:00:55.603Z,99152.06
2023-03-19T02:03:21.941Z,99128.13
2023-03-19T02:05:50.516Z,99128.59
2023-03-19T02:08:19.182Z,99122.94
2023-03-19T02:10:47.801Z,99129.41
2023-03-19T02:13:16.716Z,99131.03
2023-03-19T02:15:43.214Z,99136.38
2023-03-19T02:18:14.647Z,99142.16
2023-03-19T02:20:58.570Z,99132.22
2023-03-19T02:23:43.912Z,99136.72
2023-03-19T02:26:14.042Z,99144.53
2023-03-19T02:28:43.657Z,99157.16
2023-03-19T02:31:10.769Z,99144.31
2023-03-19T02:33:39.161Z,99159.28
2023-03-19T02:36:10.894Z,99163.97
2023-03-19T02:38:41.970Z,99151.00
2023-03-19T02:41:09.037Z,99158.47
2023-03-19T02:43:37.978Z,99177.91
2023-03-19T02:46:07.091Z,99182.59
2023-03-19T02:48:33.469Z,99169.47
2023-03-19T02:51:00.164Z,99175.91
2023-03-19T02:53:26.829Z,99160.44
2023-03-19T02:55:53.590Z,99166.91
2023-03-19T02:58:23.157Z,99166.97
2023-03-19T03:00:49.501Z,99177.00
2023-03-19T03:03:16.080Z,99175.94
2023-03-19T03:05:42.691Z,99209.56
2023-03-19T03:08:09.326Z,99242.53
2023-03-19T03:10:47.312Z,99244.84
2023-03-19T03:13:13.787Z,99286.63
2023-03-19T03:15:40.240Z,99286.09
2023-03-19T03:18:06.598Z,99309.56
2023-03-19T03:20:33.181Z,99328.34
2023-03-19T03:22:59.638Z,99334.00
2023-03-19T03:25:26.051Z,99333.81
2023-03-19T03:27:52.399Z,99320.69
2023-03-19T03:30:18.964Z,99319.69
2023-03-19T03:32:45.295Z,99369.13
2023-03-19T03:35:12.120Z,99394.91
2023-03-19T03:37:38.808Z,99416.53
2023-03-19T03:40:06.431Z,99449.94
2023-03-19T03:42:33.158Z,99511.97
2023-03-19T03:44:59.577Z,99528.28
2023-03-19T03:47:25.970Z,99561.84
2023-03-19T03:49:52.405Z,99588.78
2023-03-19T03:52:18.857Z,99610.94
2023-03-19T03:54:46.874Z,99624.56
2023-03-19T03:57:13.203Z,99642.44
2023-03-19T03:59:39.670Z,99650.25
2023-03-19T04:02:06.071Z,99653.84
2023-03-19T04:04:32.824Z,99674.50
2023-03-19T04:06:59.201Z,99701.47
2023-03-19T04:09:27.850Z,99704.75
2023-03-19T04:11:54.174Z,99684.56
2023-03-19T04:14:20.914Z,99670.09
2023-03-19T04:16:47.318Z,99672.06
2023-03-19T04:19:13.834Z,99687.72
2023-03-19T04:21:40.248Z,99704.34
2023-03-19T04:24:06.817Z,99684.97
2023-03-19T04:26:33.265Z,99701.63
2023-03-19T04:28:59.623Z,99713.09
2023-03-19T04:31:26.237Z,99723.22
2023-03-19T04:33:52.728Z,99715.63
2023-03-19T04:36:19.183Z,99726.78
2023-03-19T04:38:45.650Z,99745.94
2023-03-19T04:41:12.064Z,99752.94
2023-03-19T04:43:38.620Z,99754.81
2023-03-19T04:46:05.934Z,98972.56
2023-03-19T04:48:32.497Z,98954.16
2023-03-19T04:50:59.136Z,98943.31
2023-03-19T04:53:25.548Z,98938.50
2023-03-19T04:55:52.076Z,98924.22
2023-03-19T04:58:18.456Z,98926.47
2023-03-19T05:00:44.796Z,98921.47
2023-03-19T05:03:11.182Z,98927.75
2023-03-19T05:05:37.593Z,98937.22
2023-03-19T05:08:04.129Z,98936.44
2023-03-19T05:10:30.598Z,98930.28
2023-03-19T05:12:56.939Z,98940.78
2023-03-19T05:15:23.290Z,98935.75
2023-03-19T05:17:49.837Z,98929.09
2023-03-19T05:20:16.491Z,98933.75
2023-03-19T05:22:42.964Z,98938.91
2023-03-19T05:25:09.468Z,98937.88
2023-03-19T05:27:36.314Z,98940.53
2023-03-19T05:30:02.957Z,98942.03
2023-03-19T05:32:29.646Z,98946.34
2023-03-19T05:34:56.013Z,98945.31
2023-03-19T05:37:22.442Z,98955.59
2023-03-19T05:39:52.299Z,98954.63
2023-03-19T05:42:18.625Z,98958.94
2023-03-19T05:44:46.482Z,98970.75
2023-03-19T05:47:13.046Z,98971.75
2023-03-19T05:49:39.683Z,98971.63
2023-03-19T05:52:06.498Z,98966.81
2023-03-19T05:54:33.072Z,98958.34
2023-03-19T05:56:59.495Z,98966.94
2023-03-19T05:59:25.980Z,98955.66
2023-03-19T06:01:52.506Z,98958.00
2023-03-19T06:04:19.124Z,98956.84
2023-03-19T06:06:45.617Z,98955.66
2023-03-19T06:09:12.108Z,98959.81
2023-03-19T06:11:38.492Z,98962.47
2023-03-19T06:14:05.064Z,98965.28
2023-03-19T06:16:31.699Z,98957.16
2023-03-19T06:18:58.270Z,98960.41
2023-03-19T06:21:24.905Z,98954.03
2023-03-19T06:23:51.265Z,98964.50
2023-03-19T06:26:17.679Z,98967.00
2023-03-19T06:28:44.068Z,98971.13
2023-03-19T06:31:10.537Z,98977.63
2023-03-19T06:33:37.137Z,98984.59
2023-03-19T06:36:04.070Z,98990.75
2023-03-19T06:38:30.501Z,98989.59
2023-03-19T06:40:57.308Z,98998.31
2023-03-19T06:43:23.780Z,99005.22
2023-03-19T06:45:50.622Z,98992.81
2023-03-19T06:48:17.367Z,98993.94
2023-03-19T06:50:45.473Z,98993.94
2023-03-19T06:53:12.791Z,98985.63
2023-03-19T06:55:39.126Z,98998.22
2023-03-19T06:58:06.141Z,98993.34
2023-03-19T07:00:33.910Z,99001.06
2023-03-19T07:03:00.501Z,99012.88
2023-03-19T07:05:26.857Z,99021.47
2023-03-19T07:07:53.295Z,99031.56
2023-03-19T07:10:20.928Z,99042.94
2023-03-19T07:12:47.456Z,99051.94
2023-03-19T07:15:14.545Z,99074.44
2023-03-19T07:17:40.882Z,99080.00
2023-03-19T07:20:07.484Z,99077.63
2023-03-19T07:22:33.920Z,99065.03
2023-03-19T07:25:00.253Z,99056.88
2023-03-19T07:27:26.612Z,99050.09
2023-03-19T07:29:52.984Z,99041.28
2023-03-19T07:32:19.793Z,99041.47
2023-03-19T07:34:47.225Z,99047.47
2023-03-19T07:37:13.720Z,99052.25
2023-03-19T07:39:40.115Z,99066.97
2023-03-19T07:42:06.953Z,99080.94
2023-03-19T07:44:33.362Z,99081.31
2023-03-19T07:47:00.164Z,99090.16
2023-03-19T07:49:26.650Z,99101.56
2023-03-19T07:51:54.047Z,99093.81
2023-03-19T07:54:21.094Z,99101.53
2023-03-19T07:56:47.489Z,99115.72
2023-03-19T07:59:13.881Z,99123.72
2023-03-19T08:01:40.198Z,99142.09
2023-03-19T08:04:07.325Z,99153.38
2023-03-19T08:06:33.845Z,99170.78
2023-03-19T08:09:00.299Z,99193.19
2023-03-19T08:11:26.663Z,99204.84
2023-03-19T08:13:53.927Z,99210.81
2023-03-19T08:16:20.908Z,99206.06
2023-03-19T08:18:47.358Z,99211.44
2023-03-19T08:21:13.762Z,99219.50
2023-03-19T08:23:43.317Z,99228.88
2023-03-19T08:26:10.068Z,99223.66
2023-03-19T08:28:36.467Z,99229.56
2023-03-19T08:31:07.607Z,99225.59
2023-03-19T08:33:34.251Z,99228.47
2023-03-19T08:36:06.448Z,99215.94
2023-03-19T08:38:33.009Z,99218.59
2023-03-19T08:40:59.559Z,99219.16
2023-03-19T08:43:25.948Z,99221.91
2023-03-19T08:45:52.593Z,99225.09
2023-03-19T08:48:19.086Z,99220.13
2023-03-19T08:50:52.033Z,99217.41
2023-03-19T08:53:18.455Z,99228.06
2023-03-19T08:55:44.813Z,99220.91
2023-03-19T08:58:11.247Z,99230.06
2023-03-19T09:00:38.291Z,99217.00
2023-03-19T09:03:04.668Z,99206.78
2023-03-19T09:05:31.000Z,99193.84
2023-03-19T09:07:57.356Z,99179.88
2023-03-19T09:10:24.132Z,99176.31
2023-03-19T09:12:50.525Z,99146.25
2023-03-19T09:15:18.047Z,99124.69
2023-03-19T09:17:44.656Z,99134.34
2023-03-19T09:20:11.170Z,99143.44
2023-03-19T09:22:37.874Z,99078.75
2023-03-19T09:25:06.050Z,99094.03
2023-03-19T09:27:32.667Z,99092.34
2023-03-19T09:29:59.246Z,99027.38
2023-03-19T09:35:10.834Z,98996.41
2023-03-19T09:37:37.415Z,98969.09
2023-03-19T09:40:04.809Z,98915.13
2023-03-19T09:43:04.707Z,98813.66
2023-03-19T09:45:31.744Z,98800.09
2023-03-19T09:48:04.510Z,98786.38
2023-03-19T09:50:33.106Z,98740.25
2023-03-19T09:53:17.529Z,98771.34
2023-03-19T09:55:48.256Z,98733.94
2023-03-19T09:58:20.773Z,98720.81
2023-03-19T10:00:53.584Z,98710.59
2023-03-19T10:03:38.371Z,98695.53
2023-03-19T10:06:20.123Z,98689.69
2023-03-19T10:09:18.103Z,98687.19
2023-03-19T10:11:44.902Z,98680.00
2023-03-19T10:14:37.625Z,98670.31
2023-03-19T10:17:10.753Z,98659.84
2023-03-19T10:20:03.141Z,98662.47
2023-03-19T10:22:39.060Z,98665.00
2023-03-19T10:25:12.317Z,98662.66
2023-03-19T10:27:39.002Z,98657.78
2023-03-19T10:30:14.458Z,98655.34
2023-03-19T10:32:44.174Z,98650.41
2023-03-19T10:35:24.476Z,98648.50
2023-03-19T10:37:51.292Z,98644.31
2023-03-19T10:40:34.729Z,98650.06
2023-03-19T10:43:14.787Z,98647.13
2023-03-19T10:45:41.998Z,98647.28
2023-03-19T10:48:15.509Z,98651.53
2023-03-19T10:50:52.955Z,98634.06
2023-03-19T10:53:19.448Z,98640.03
2023-03-19T10:56:01.025Z,98643.97
2023-03-19T10:58:30.540Z,98641.97
2023-03-19T11:01:06.458Z,98632.38
2023-03-19T11:03:37.558Z,98625.91
2023-03-19T11:06:15.910Z,98625.69
2023-03-19T11:08:42.669Z,98622.94
2023-03-19T11:11:35.511Z,98623.59
2023-03-19T11:14:20.720Z,98630.97
2023-03-19T11:16:51.946Z,98620.44
2023-03-19T11:19:31.007Z,98630.50
2023-03-19T11:22:12.627Z,98620.03
2023-03-19T11:24:41.619Z,98629.09
2023-03-19T11:27:10.040Z,98629.28
2023-03-19T11:29:45.312Z,98621.50
2023-03-19T11:32:47.285Z,98618.19
2023-03-19T11:35:21.949Z,98617.66
2023-03-19T11:37:55.097Z,98615.00
2023-03-19T11:40:27.413Z,98618.63
2023-03-19T11:43:10.348Z,98608.59
2023-03-19T11:45:59.132Z,98612.75
2023-03-19T11:48:51.321Z,98617.66
2023-03-19T11:51:27.017Z,98612.00
2023-03-19T11:54:05.652Z,98605.03
2023-03-19T11:56:47.673Z,98614.38
2023-03-19T11:59:33.289Z,98596.03
2023-03-19T12:02:15.174Z,98588.94
2023-03-19T12:04:58.997Z,98593.66
2023-03-19T12:07:48.736Z,98595.34
2023-03-19T12:11:07.233Z,98591.34
2023-03-19T12:14:02.881Z,98595.22
2023-03-19T12:16:46.526Z,98591.72
2023-03-19T12:19:49.116Z,98583.41
2023-03-19T12:22:36.315Z,98587.59
2023-03-19T12:25:45.307Z,98582.16
2023-03-19T12:28:29.325Z,98578.78
2023-03-19T12:31:23.552Z,98574.63
2023-03-19T12:34:08.772Z,98578.78
2023-03-19T12:36:45.830Z,98586.47
2023-03-19T12:39:18.751Z,98582.50
2023-03-19T12:41:47.770Z,98576.13
2023-03-19T12:44:29.086Z,98578.78
2023-03-19T12:47:09.681Z,98579.22
2023-03-19T12:49:41.433Z,98579.94
2023-03-19T12:52:19.415Z,98574.19
2023-03-19T12:55:02.445Z,98574.09
2023-03-19T12:57:39.655Z,98563.94
2023-03-19T13:00:24.355Z,98572.72
2023-03-19T13:03:01.475Z,98565.00
2023-03-19T13:05:52.956Z,98563.88
2023-03-19T13:08:22.391Z,98564.00
2023-03-19T13:10:49.186Z,98566.91
2023-03-19T13:13:33.228Z,98567.22
2023-03-19T13:16:09.982Z,98560.19
2023-03-19T13:19:02.713Z,98562.66
2023-03-19T13:21:34.341Z,98551.16
2023-03-19T13:24:16.159Z,98554.50
2023-03-19T13:26:44.133Z,98550.91
2023-03-19T13:29:27.964Z,98544.41
2023-03-19T13:32:01.764Z,98547.63
2023-03-19T13:34:33.102Z,98556.88
2023-03-19T13:37:06.118Z,98549.78
2023-03-19T13:39:34.297Z,98547.22
2023-03-19T13:42:06.456Z,98546.06
2023-03-19T13:44:35.945Z,98537.50
2023-03-19T13:47:23.987Z,98546.63
2023-03-19T13:50:08.963Z,98540.72
2023-03-19T13:52:44.997Z,98552.28
2023-03-19T13:55:26.565Z,98547.38
2023-03-19T13:58:10.698Z,98547.09
2023-03-19T14:00:43.149Z,98552.19
2023-03-19T14:03:30.994Z,98555.53
2023-03-19T14:05:59.432Z,98549.91
2023-03-19T14:08:29.202Z,98553.38
2023-03-19T14:10:59.154Z,98546.34
2023-03-19T14:13:31.652Z,98552.41
2023-03-19T14:16:15.870Z,98551.81
2023-03-19T14:18:43.396Z,98548.66
2023-03-19T14:21:16.251Z,98550.22
2023-03-19T14:23:53.807Z,98548.13
2023-03-19T14:26:25.587Z,98539.13
2023-03-19T14:29:04.640Z,98540.75
2023-03-19T14:31:36.942Z,98543.00
2023-03-19T14:34:19.364Z,98540.75
2023-03-19T14:36:52.685Z,98542.41
2023-03-19T14:39:25.031Z,98529.63
2023-03-19T14:42:47.261Z,98542.16
2023-03-19T14:45:30.762Z,98534.06
2023-03-19T14:48:17.996Z,98533.59
2023-03-19T14:51:12.217Z,98541.22
2023-03-19T14:53:44.859Z,98537.84
2023-03-19T14:56:15.432Z,98533.53
2023-03-19T14:58:49.248Z,98539.72
2023-03-19T15:01:16.778Z,98544.25
2023-03-19T15:03:43.274Z,98545.66
2023-03-19T15:06:13.090Z,98551.53
2023-03-19T15:08:41.870Z,98558.84
2023-03-19T15:11:14.212Z,98568.44
2023-03-19T15:13:58.942Z,98573.66
2023-03-19T15:17:10.409Z,98604.47
2023-03-19T15:19:40.902Z,98655.19
2023-03-19T15:22:13.736Z,98762.50
2023-03-19T15:24:40.746Z,98870.00
2023-03-19T15:27:27.450Z,98912.13
2023-03-19T15:30:02.109Z,98947.19
2023-03-19T15:32:56.859Z,98996.66
2023-03-19T15:35:34.158Z,99004.53
2023-03-19T15:38:07.724Z,98985.75
2023-03-19T15:40:36.518Z,98960.38
2023-03-19T15:43:03.755Z,98966.38
2023-03-19T15:45:33.062Z,99014.84
2023-03-19T15:48:17.556Z,98952.13
2023-03-19T15:50:47.971Z,99015.03
2023-03-19T15:53:24.601Z,99074.56
2023-03-19T15:55:54.889Z,99068.34
2023-03-19T15:58:24.512Z,99106.03
2023-03-19T16:00:53.199Z,99138.81
2023-03-19T16:03:25.012Z,99156.31
2023-03-19T16:06:03.457Z,99149.53
2023-03-19T16:08:30.847Z,99176.38
2023-03-19T16:11:37.771Z,99172.31
2023-03-19T16:14:24.358Z,99229.09
2023-03-19T16:16:52.004Z,99210.22
2023-03-19T16:19:52.428Z,99114.09
2023-03-19T16:22:25.101Z,99091.59
2023-03-19T16:24:52.750Z,99108.69
2023-03-19T16:27:33.931Z,99135.47
2023-03-19T16:30:01.233Z,99098.00
2023-03-19T16:32:30.070Z,99114.91
2023-03-19T16:34:57.768Z,99168.16
2023-03-19T16:37:42.853Z,99261.13
2023-03-19T16:40:12.276Z,99316.56
2023-03-19T16:42:49.493Z,99367.94
2023-03-19T16:45:15.884Z,99410.56
2023-03-19T16:47:43.602Z,99435.06
2023-03-19T16:50:11.300Z,99454.28
2023-03-19T16:52:40.220Z,99513.53
2023-03-19T16:55:18.865Z,99557.56
2023-03-19T16:57:47.430Z,99620.13
2023-03-19T17:00:14.471Z,99654.75
2023-03-19T17:02:40.967Z,99667.69
2023-03-19T17:05:14.775Z,99685.84
2023-03-19T17:07:41.415Z,99699.78
2023-03-19T17:10:13.326Z,99715.84
2023-03-19T17:12:40.037Z,99726.09
2023-03-19T17:15:16.125Z,99698.84
2023-03-19T17:17:42.766Z,99514.91
2023-03-19T17:20:16.244Z,99234.16
2023-03-19T17:22:42.739Z,99173.16
2023-03-19T17:25:12.659Z,99150.06
2023-03-19T17:27:39.381Z,99177.16
2023-03-19T17:30:06.716Z,99188.66
2023-03-19T17:32:33.455Z,99203.25
2023-03-19T17:35:00.294Z,99215.38
2023-03-19T17:37:30.879Z,99210.41
2023-03-19T17:39:57.358Z,99206.81
2023-03-19T17:42:26.075Z,99199.38
2023-03-19T17:44:52.652Z,99218.22
2023-03-19T17:47:19.972Z,99194.16
2023-03-19T17:49:47.452Z,99215.72
2023-03-19T17:52:16.324Z,99255.56
2023-03-19T17:54:43.383Z,99259.56
2023-03-19T17:57:14.642Z,99261.41
2023-03-19T17:59:41.058Z,99288.91
2023-03-19T18:02:31.329Z,99318.31
2023-03-19T18:04:57.896Z,99323.00
2023-03-19T18:07:24.361Z,99332.88
2023-03-19T18:09:50.858Z,99354.50
2023-03-19T18:12:17.255Z,99373.44
2023-03-19T18:14:43.801Z,99359.88
2023-03-19T18:17:16.734Z,99371.41
2023-03-19T18:19:46.385Z,99420.91
2023-03-19T18:22:15.610Z,99411.50
2023-03-19T18:24:42.872Z,99395.94
2023-03-19T18:27:09.472Z,99358.22
2023-03-19T18:29:36.208Z,99349.38
2023-03-19T18:32:10.799Z,99373.22
2023-03-19T18:34:37.450Z,99394.53
2023-03-19T18:37:04.023Z,99404.59
2023-03-19T18:39:30.583Z,99419.78
2023-03-19T18:41:57.314Z,99421.00
2023-03-19T18:44:23.733Z,99448.72
2023-03-19T18:46:50.605Z,99446.72
2023-03-19T18:49:23.058Z,99498.22
2023-03-19T18:52:01.484Z,99527.81
2023-03-19T18:54:29.328Z,99566.91
2023-03-19T18:56:57.116Z,99551.03
2023-03-19T18:59:26.819Z,99551.38
2023-03-19T19:02:21.608Z,99584.25
2023-03-19T19:04:48.400Z,99606.88
2023-03-19T19:07:16.187Z,99641.81
2023-03-19T19:09:43.131Z,99707.78
2023-03-19T19:12:13.928Z,99765.41
2023-03-19T19:14:40.711Z,99826.16
2023-03-19T19:17:15.747Z,99867.25
2023-03-19T19:19:43.113Z,99904.63
2023-03-19T19:22:17.585Z,99926.66
2023-03-19T19:24:44.816Z,99963.03
2023-03-19T19:27:20.816Z,99986.75
2023-03-19T19:29:48.075Z,100011.91
2023-03-19T19:32:26.501Z,100030.09
2023-03-19T19:34:53.742Z,100033.78
2023-03-19T19:37:20.290Z,100052.44
2023-03-19T19:39:46.838Z,100041.44
2023-03-19T19:42:18.272Z,100020.75
2023-03-19T19:44:52.174Z,100013.41
2023-03-19T19:47:19.010Z,100021.06
2023-03-19T19:49:45.675Z,100029.25
2023-03-19T19:52:17.609Z,100033.78
2023-03-19T19:54:45.410Z,100077.66
2023-03-19T19:57:23.206Z,99256.88
2023-03-19T19:59:51.567Z,99227.50
2023-03-19T20:02:28.448Z,99215.72
2023-03-19T20:04:55.670Z,99205.31
2023-03-19T20:07:22.132Z,99177.59
2023-03-19T20:09:48.964Z,99168.13
2023-03-19T20:12:25.484Z,99154.25
2023-03-19T20:14:52.500Z,99150.00
2023-03-19T20:17:20.105Z,99154.41
2023-03-19T20:19:47.000Z,99138.28
2023-03-19T20:22:13.528Z,99070.72
2023-03-19T20:24:40.459Z,99055.47
2023-03-19T20:27:14.946Z,99050.84
2023-03-19T20:29:41.385Z,99041.94
2023-03-19T20:32:26.022Z,99030.38
2023-03-19T20:34:52.557Z,99018.41
2023-03-19T20:37:18.908Z,99015.09
2023-03-19T20:39:45.463Z,99006.81
2023-03-19T20:42:15.477Z,99008.56
2023-03-19T20:44:43.542Z,99002.69
2023-03-19T20:47:16.228Z,99000.41
2023-03-19T20:49:43.558Z,98997.91
2023-03-19T20:52:10.683Z,98998.09
2023-03-19T20:54:37.479Z,98993.28
2023-03-19T20:57:03.887Z,99010.13
2023-03-19T20:59:30.297Z,99009.28
2023-03-19T21:01:56.863Z,99001.78
2023-03-19T21:04:23.625Z,99004.25
2023-03-19T21:06:53.646Z,99011.41
2023-03-19T21:09:20.615Z,99011.94
2023-03-19T21:11:47.309Z,99025.16
2023-03-19T21:14:15.382Z,99028.38
2023-03-19T21:16:41.823Z,99027.25
2023-03-19T21:19:08.181Z,99037.56
2023-03-19T21:21:37.126Z,99037.41
2023-03-19T21:24:15.325Z,99041.97
2023-03-19T21:26:42.830Z,99043.44
2023-03-19T21:29:29.976Z,99047.78
2023-03-19T21:31:56.780Z,99047.78
2023-03-19T21:34:23.257Z,99043.44
2023-03-19T21:36:52.212Z,99044.16
2023-03-19T21:39:18.624Z,99048.22
2023-03-19T21:41:46.322Z,99048.75
2023-03-19T21:44:16.371Z,99054.72
2023-03-19T21:46:46.218Z,99059.78
2023-03-19T21:49:12.986Z,99057.44
2023-03-19T21:51:39.531Z,99056.31
2023-03-19T21:54:06.222Z,99051.34
2023-03-19T21:56:38.326Z,99055.34
2023-03-19T21:59:14.027Z,99049.84
2023-03-19T22:01:40.833Z,99046.53
2023-03-19T22:04:07.338Z,99043.88
2023-03-19T22:06:33.959Z,99048.69
2023-03-19T22:09:00.713Z,99037.06
2023-03-19T22:11:30.000Z,99041.56
2023-03-19T22:14:03.589Z,99043.41
2023-03-19T22:16:31.897Z,99041.19
2023-03-19T22:18:58.305Z,99047.00
2023-03-19T22:21:24.826Z,99046.69
2023-03-19T22:23:51.626Z,99043.75
2023-03-19T22:26:24.069Z,99037.97
2023-03-19T22:28:51.218Z,99041.97
2023-03-19T22:31:17.733Z,99036.84
2023-03-19T22:33:44.350Z,99030.69
2023-03-19T22:36:13.249Z,99041.03
2023-03-19T22:38:39.723Z,99039.72
2023-03-19T22:41:15.303Z,99038.03
2023-03-19T22:43:42.837Z,99043.56
2023-03-19T22:46:11.826Z,99039.25
2023-03-19T22:48:38.775Z,99033.41
2023-03-19T22:51:06.396Z,99029.78
2023-03-19T22:53:35.459Z,99034.75
2023-03-19T22:56:02.764Z,99023.91
2023-03-19T22:58:29.893Z,99023.28
2023-03-19T23:00:56.880Z,99025.75
2023-03-19T23:03:26.479Z,99032.88
2023-03-19T23:05:56.320Z,99037.66
2023-03-19T23:08:22.775Z,99042.66
2023-03-19T23:10:50.321Z,99034.06
2023-03-19T23:13:16.978Z,99034.41
2023-03-19T23:15:44.624Z,99039.38
2023-03-19T23:18:21.049Z,99042.84
2023-03-19T23:20:48.057Z,99039.03
2023-03-19T23:23:16.077Z,99044.34
2023-03-19T23:25:44.287Z,99044.28
2023-03-19T23:28:31.766Z,99042.59
2023-03-19T23:30:58.460Z,99045.06
2023-03-19T23:33:24.950Z,99045.06
2023-03-19T23:35:51.402Z,99043.41
2023-03-19T23:38:17.823Z,99049.88
2023-03-19T23:40:44.336Z,99044.34
2023-03-19T23:43:19.152Z,99050.69
2023-03-19T23:45:46.484Z,99049.88
2023-03-19T23:48:23.011Z,99056.00
2023-03-19T23:50:49.687Z,99050.03
2023-03-19T23:53:27.136Z,99057.69
2023-03-19T23:56:07.191Z,99052.38
2023-03-19T23:58:39.888Z,99052.88
